createdAt,value
2023-03-02T00:01:24.417Z,2.30
2023-03-02T00:03:51.049Z,2.45
2023-03-02T00:06:17.775Z,2.50
2023-03-02T00:08:44.182Z,2.45
2023-03-02T00:11:11.240Z,2.30
2023-03-02T00:13:38.534Z,2.17
2023-03-02T00:16:05.246Z,2.08
2023-03-02T00:18:31.802Z,2.20
2023-03-02T00:20:58.290Z,2.30
2023-03-02T00:23:24.750Z,2.30
2023-03-02T00:25:51.106Z,2.30
2023-03-02T00:28:17.649Z,2.45
2023-03-02T00:30:44.103Z,2.50
2023-03-02T00:33:10.544Z,2.40
2023-03-02T00:35:38.051Z,2.58
2023-03-02T00:38:04.472Z,3.40
2023-03-02T00:40:31.068Z,5.70
2023-03-02T00:42:57.453Z,6.55
2023-03-02T00:45:23.966Z,6.50
2023-03-02T00:47:50.364Z,7.55
2023-03-02T00:50:16.938Z,8.07
2023-03-02T00:52:43.276Z,8.70
2023-03-02T00:55:10.004Z,8.32
2023-03-02T00:57:36.400Z,8.80
2023-03-02T01:00:05.004Z,9.27
2023-03-02T01:02:43.963Z,8.90
2023-03-02T01:05:13.206Z,8.60
2023-03-02T01:07:39.848Z,9.30
2023-03-02T01:10:06.591Z,9.20
2023-03-02T01:12:33.073Z,8.68
2023-03-02T01:14:59.552Z,8.68
2023-03-02T01:17:26.181Z,9.35
2023-03-02T01:19:52.991Z,9.43
2023-03-02T01:22:19.496Z,9.10
2023-03-02T01:24:45.980Z,9.05
2023-03-02T01:27:12.464Z,9.10
2023-03-02T01:29:38.848Z,9.00
2023-03-02T01:32:05.684Z,9.45
2023-03-02T01:34:32.115Z,9.70
2023-03-02T01:36:59.097Z,9.70
2023-03-02T01:39:25.563Z,9.68
2023-03-02T01:41:52.679Z,9.05
2023-03-02T01:44:37.795Z,8.85
2023-03-02T01:47:05.228Z,9.80
2023-03-02T01:49:34.445Z,9.43
2023-03-02T01:52:01.237Z,9.60
2023-03-02T01:54:28.089Z,9.02
2023-03-02T01:56:59.987Z,9.20
2023-03-02T01:59:27.628Z,9.35
2023-03-02T02:01:56.843Z,9.30
2023-03-02T02:04:23.933Z,9.45
2023-03-02T02:07:03.708Z,9.23
2023-03-02T02:11:56.680Z,9.13
2023-03-02T02:14:23.889Z,9.85
2023-03-02T02:16:50.317Z,9.73
2023-03-02T02:19:35.587Z,10.18
2023-03-02T02:22:02.494Z,9.90
2023-03-02T02:24:37.640Z,9.75
2023-03-02T02:27:04.295Z,9.52
2023-03-02T02:29:33.137Z,10.05
2023-03-02T02:31:59.759Z,9.50
2023-03-02T02:34:32.191Z,9.32
2023-03-02T02:37:03.220Z,9.48
2023-03-02T02:39:35.060Z,9.05
2023-03-02T02:42:03.562Z,9.90
2023-03-02T02:44:30.417Z,9.60
2023-03-02T02:46:57.076Z,9.63
2023-03-02T02:49:31.377Z,9.55
2023-03-02T02:51:58.724Z,9.20
2023-03-02T02:54:25.546Z,9.32
2023-03-02T02:56:52.529Z,9.25
2023-03-02T02:59:24.180Z,9.40
2023-03-02T03:01:51.128Z,9.35
2023-03-02T03:04:19.647Z,9.25
2023-03-02T03:07:05.572Z,9.55
2023-03-02T03:09:33.215Z,9.68
2023-03-02T03:12:00.538Z,9.15
2023-03-02T03:14:29.145Z,9.20
2023-03-02T03:16:55.694Z,9.73
2023-03-02T03:19:22.700Z,9.68
2023-03-02T03:21:51.667Z,9.55
2023-03-02T03:24:18.827Z,9.23
2023-03-02T03:26:48.749Z,10.15
2023-03-02T03:29:17.886Z,10.32
2023-03-02T03:31:44.846Z,9.50
2023-03-02T03:36:38.827Z,9.15
2023-03-02T03:39:06.365Z,9.40
2023-03-02T03:41:33.271Z,9.38
2023-03-02T03:44:00.787Z,8.75
2023-03-02T03:46:29.894Z,9.80
2023-03-02T03:48:57.093Z,9.18
2023-03-02T03:51:23.811Z,9.13
2023-03-02T03:53:59.773Z,9.10
2023-03-02T03:56:31.377Z,8.68
2023-03-02T03:59:16.154Z,9.15
2023-03-02T04:01:53.105Z,8.48
2023-03-02T04:04:25.309Z,8.60
2023-03-02T04:06:54.374Z,8.13
2023-03-02T04:09:21.761Z,8.98
2023-03-02T04:11:49.589Z,8.30
2023-03-02T04:14:16.450Z,8.80
2023-03-02T04:16:43.705Z,8.57
2023-03-02T04:19:11.005Z,8.57
2023-03-02T04:21:41.281Z,8.93
2023-03-02T04:24:08.748Z,8.23
2023-03-02T04:26:37.176Z,9.10
2023-03-02T04:29:04.058Z,8.93
2023-03-02T04:31:31.321Z,8.65
2023-03-02T04:33:59.204Z,8.70
2023-03-02T04:36:26.400Z,8.50
2023-03-02T04:38:53.376Z,7.82
2023-03-02T04:41:19.792Z,8.35
2023-03-02T04:43:46.208Z,8.40
2023-03-02T04:46:15.109Z,8.20
2023-03-02T04:48:41.659Z,8.15
2023-03-02T04:51:10.100Z,8.30
2023-03-02T04:53:36.444Z,7.60
2023-03-02T04:56:02.955Z,8.00
2023-03-02T04:58:29.450Z,8.00
2023-03-02T05:01:02.087Z,7.05
2023-03-02T05:03:28.516Z,7.57
2023-03-02T05:05:54.870Z,7.68
2023-03-02T05:08:21.326Z,7.97
2023-03-02T05:10:47.740Z,7.13
2023-03-02T05:13:14.115Z,7.57
2023-03-02T05:15:40.802Z,7.03
2023-03-02T05:18:08.446Z,7.20
2023-03-02T05:23:02.587Z,6.85
2023-03-02T05:27:55.398Z,7.13
2023-03-02T05:30:22.597Z,7.10
2023-03-02T05:32:50.485Z,7.35
2023-03-02T05:35:16.959Z,7.10
2023-03-02T05:37:44.790Z,7.03
2023-03-02T05:40:16.197Z,6.97
2023-03-02T05:42:43.235Z,6.50
2023-03-02T05:45:13.327Z,7.18
2023-03-02T05:47:39.678Z,7.25
2023-03-02T05:50:08.877Z,7.35
2023-03-02T05:52:35.346Z,7.30
2023-03-02T05:55:01.853Z,7.60
2023-03-02T05:57:28.186Z,7.53
2023-03-02T05:59:54.614Z,7.30
2023-03-02T06:02:21.054Z,6.85
2023-03-02T06:04:47.474Z,7.07
2023-03-02T06:07:13.944Z,7.25
2023-03-02T06:09:40.760Z,7.13
2023-03-02T06:12:08.102Z,6.07
2023-03-02T06:14:35.068Z,7.28
2023-03-02T06:17:01.532Z,7.53
2023-03-02T06:19:28.100Z,7.63
2023-03-02T06:21:54.626Z,7.30
2023-03-02T06:24:21.052Z,7.32
2023-03-02T06:26:47.610Z,7.47
2023-03-02T06:29:14.078Z,7.35
2023-03-02T06:31:40.509Z,7.63
2023-03-02T06:34:07.012Z,7.03
2023-03-02T06:36:33.898Z,7.13
2023-03-02T06:39:00.482Z,7.35
2023-03-02T06:41:26.901Z,7.93
2023-03-02T06:43:53.288Z,7.57
2023-03-02T06:46:19.785Z,8.13
2023-03-02T06:48:46.404Z,7.40
2023-03-02T06:51:12.809Z,7.55
2023-03-02T06:53:39.183Z,7.65
2023-03-02T06:56:05.886Z,7.90
2023-03-02T06:58:32.232Z,8.13
2023-03-02T07:00:58.688Z,7.90
2023-03-02T07:03:25.153Z,8.02
2023-03-02T07:05:52.233Z,7.50
2023-03-02T07:08:18.725Z,7.28
2023-03-02T07:10:45.156Z,7.38
2023-03-02T07:13:11.600Z,7.63
2023-03-02T07:15:41.048Z,8.15
2023-03-02T07:18:07.575Z,7.95
2023-03-02T07:20:34.250Z,8.13
2023-03-02T07:23:00.826Z,7.75
2023-03-02T07:25:27.420Z,7.82
2023-03-02T07:27:53.749Z,7.90
2023-03-02T07:30:21.355Z,7.85
2023-03-02T07:32:48.507Z,7.35
2023-03-02T07:35:15.014Z,6.95
2023-03-02T07:37:41.411Z,6.80
2023-03-02T07:40:08.106Z,6.93
2023-03-02T07:42:34.453Z,6.43
2023-03-02T07:45:04.291Z,6.18
2023-03-02T07:47:30.882Z,6.18
2023-03-02T07:49:57.715Z,5.50
2023-03-02T07:52:26.631Z,5.13
2023-03-02T07:54:53.168Z,5.20
2023-03-02T07:57:19.575Z,4.70
2023-03-02T07:59:45.982Z,5.00
2023-03-02T08:02:13.825Z,4.32
2023-03-02T08:04:40.604Z,4.53
2023-03-02T08:07:07.159Z,4.20
2023-03-02T08:09:33.605Z,4.18
2023-03-02T08:11:59.953Z,4.20
2023-03-02T08:14:26.529Z,3.70
2023-03-02T08:16:52.934Z,3.78
2023-03-02T08:19:19.916Z,3.40
2023-03-02T08:21:46.288Z,4.05
2023-03-02T08:24:12.714Z,3.70
2023-03-02T08:26:39.738Z,4.00
2023-03-02T08:29:06.762Z,3.53
2023-03-02T08:31:33.667Z,3.55
2023-03-02T08:36:26.530Z,3.78
2023-03-02T08:38:54.017Z,3.50
2023-03-02T08:41:21.705Z,3.40
2023-03-02T08:43:48.339Z,3.58
2023-03-02T08:46:15.924Z,3.70
2023-03-02T08:48:42.358Z,3.60
2023-03-02T08:51:13.393Z,3.90
2023-03-02T08:53:41.040Z,3.33
2023-03-02T08:56:26.421Z,3.00
2023-03-02T09:01:20.662Z,3.13
2023-03-02T09:03:47.198Z,3.60
2023-03-02T09:06:13.751Z,3.55
2023-03-02T09:08:40.357Z,3.42
2023-03-02T09:11:06.936Z,3.28
2023-03-02T09:13:33.435Z,3.58
2023-03-02T09:16:00.778Z,3.10
2023-03-02T09:18:28.845Z,3.25
2023-03-02T09:20:56.340Z,3.20
2023-03-02T09:23:28.581Z,2.85
2023-03-02T09:25:55.632Z,3.30
2023-03-02T09:28:22.393Z,2.70
2023-03-02T09:30:52.933Z,2.97
2023-03-02T09:33:19.796Z,3.10
2023-03-02T09:35:47.546Z,3.22
2023-03-02T09:38:16.936Z,3.22
2023-03-02T09:40:55.409Z,3.45
2023-03-02T09:43:27.590Z,3.42
2023-03-02T09:45:56.851Z,3.42
2023-03-02T09:48:37.480Z,3.20
2023-03-02T09:51:24.182Z,3.03
2023-03-02T09:54:10.055Z,2.97
2023-03-02T09:56:38.126Z,3.70
2023-03-02T09:59:13.086Z,3.70
2023-03-02T10:01:42.370Z,3.80
2023-03-02T10:04:18.978Z,3.30
2023-03-02T10:06:45.524Z,3.00
2023-03-02T10:09:12.097Z,3.35
2023-03-02T10:11:49.674Z,3.08
2023-03-02T10:14:28.331Z,3.25
2023-03-02T10:17:09.967Z,2.70
2023-03-02T10:19:42.286Z,2.88
2023-03-02T10:22:08.682Z,3.30
2023-03-02T10:24:39.886Z,3.13
2023-03-02T10:27:18.229Z,2.90
2023-03-02T10:29:52.626Z,2.95
2023-03-02T10:32:21.063Z,3.10
2023-03-02T10:34:49.233Z,2.88
2023-03-02T10:37:21.498Z,2.90
2023-03-02T10:39:48.464Z,2.63
2023-03-02T10:42:16.942Z,2.70
2023-03-02T10:44:48.899Z,2.60
2023-03-02T10:47:26.127Z,2.65
2023-03-02T10:49:53.263Z,2.60
2023-03-02T10:52:26.889Z,2.50
2023-03-02T10:55:04.226Z,2.42
2023-03-02T10:57:38.168Z,2.53
2023-03-02T11:00:13.631Z,2.55
2023-03-02T11:02:48.256Z,2.67
2023-03-02T11:05:17.645Z,2.50
2023-03-02T11:08:13.298Z,2.33
2023-03-02T11:10:40.918Z,2.35
2023-03-02T11:13:23.835Z,2.80
2023-03-02T11:15:51.300Z,2.67
2023-03-02T11:18:36.856Z,2.83
2023-03-02T11:21:05.625Z,2.67
2023-03-02T11:23:38.711Z,2.95
2023-03-02T11:26:07.892Z,2.47
2023-03-02T11:28:34.366Z,2.65
2023-03-02T11:31:01.833Z,2.60
2023-03-02T11:33:36.253Z,2.60
2023-03-02T11:36:06.272Z,2.85
2023-03-02T11:38:34.362Z,2.60
2023-03-02T11:41:04.394Z,2.38
2023-03-02T11:43:31.369Z,2.38
2023-03-02T11:46:06.700Z,2.47
2023-03-02T11:48:35.021Z,2.53
2023-03-02T11:51:06.396Z,2.20
2023-03-02T11:53:45.169Z,2.47
2023-03-02T11:56:11.865Z,2.20
2023-03-02T11:58:38.569Z,2.50
2023-03-02T12:01:07.343Z,2.40
2023-03-02T12:03:33.679Z,2.30
2023-03-02T12:06:02.716Z,2.30
2023-03-02T12:08:34.518Z,2.03
2023-03-02T12:11:03.321Z,2.40
2023-03-02T12:13:34.521Z,2.20
2023-03-02T12:16:01.496Z,2.25
2023-03-02T12:18:29.291Z,2.10
2023-03-02T12:21:15.473Z,2.30
2023-03-02T12:23:53.972Z,1.83
2023-03-02T12:26:20.364Z,2.10
2023-03-02T12:29:04.380Z,2.30
2023-03-02T12:31:41.522Z,2.10
2023-03-02T12:34:22.208Z,2.30
2023-03-02T12:36:49.261Z,2.10
2023-03-02T12:39:38.937Z,1.92
2023-03-02T12:42:11.518Z,1.90
2023-03-02T12:44:56.537Z,2.30
2023-03-02T12:47:29.576Z,2.03
2023-03-02T12:49:57.745Z,2.15
2023-03-02T12:52:34.467Z,2.13
2023-03-02T12:55:10.272Z,2.17
2023-03-02T12:57:47.257Z,2.05
2023-03-02T13:00:17.741Z,2.15
2023-03-02T13:02:48.647Z,2.10
2023-03-02T13:05:34.412Z,2.15
2023-03-02T13:08:02.878Z,2.30
2023-03-02T13:10:42.462Z,2.30
2023-03-02T13:13:16.374Z,1.70
2023-03-02T13:15:49.072Z,1.83
2023-03-02T13:18:16.129Z,1.85
2023-03-02T13:20:42.717Z,2.15
2023-03-02T13:23:15.813Z,2.20
2023-03-02T13:25:52.780Z,2.15
2023-03-02T13:28:35.869Z,2.00
2023-03-02T13:31:09.493Z,2.17
2023-03-02T13:33:43.707Z,1.80
2023-03-02T13:36:17.516Z,1.98
2023-03-02T13:38:46.776Z,1.80
2023-03-02T13:41:20.741Z,2.10
2023-03-02T13:43:47.185Z,2.10
2023-03-02T13:46:13.675Z,1.60
2023-03-02T13:48:40.120Z,1.77
2023-03-02T13:51:17.316Z,2.17
2023-03-02T13:53:54.919Z,1.75
2023-03-02T13:56:23.143Z,1.75
2023-03-02T13:58:49.542Z,1.73
2023-03-02T14:01:16.052Z,1.70
2023-03-02T14:03:42.403Z,1.90
2023-03-02T14:06:09.470Z,1.67
2023-03-02T14:11:02.709Z,1.65
2023-03-02T14:13:33.401Z,1.63
2023-03-02T14:16:00.009Z,1.58
2023-03-02T14:18:28.356Z,1.55
2023-03-02T14:20:55.157Z,1.50
2023-03-02T14:23:22.115Z,1.48
2023-03-02T14:25:49.716Z,1.70
2023-03-02T14:28:22.221Z,1.73
2023-03-02T14:30:50.112Z,1.80
2023-03-02T14:33:17.638Z,1.98
2023-03-02T14:35:44.483Z,1.80
2023-03-02T14:38:11.690Z,1.80
2023-03-02T14:43:04.373Z,1.85
2023-03-02T14:45:31.125Z,1.75
2023-03-02T14:47:57.647Z,1.70
2023-03-02T14:50:24.079Z,1.88
2023-03-02T14:52:52.192Z,1.80
2023-03-02T14:55:28.954Z,1.75
2023-03-02T14:58:00.073Z,1.83
2023-03-02T15:00:27.188Z,1.60
2023-03-02T15:02:53.780Z,1.85
2023-03-02T15:05:20.404Z,2.10
2023-03-02T15:07:47.199Z,1.70
2023-03-02T15:10:18.446Z,1.80
2023-03-02T15:12:45.201Z,2.00
2023-03-02T15:15:12.114Z,2.13
2023-03-02T15:17:38.734Z,1.70
2023-03-02T15:20:06.178Z,1.70
2023-03-02T15:22:34.096Z,1.98
2023-03-02T15:25:00.787Z,1.70
2023-03-02T15:27:27.197Z,1.70
2023-03-02T15:29:55.782Z,1.60
2023-03-02T15:32:23.274Z,1.75
2023-03-02T15:34:49.855Z,1.80
2023-03-02T15:37:16.335Z,1.70
2023-03-02T15:39:43.045Z,1.85
2023-03-02T15:42:09.863Z,1.90
2023-03-02T15:44:37.255Z,1.90
2023-03-02T15:47:03.811Z,1.80
2023-03-02T15:49:32.776Z,1.75
2023-03-02T15:51:59.300Z,1.95
2023-03-02T15:54:26.224Z,1.77
2023-03-02T15:56:53.521Z,1.90
2023-03-02T15:59:20.718Z,1.70
2023-03-02T16:04:13.562Z,1.60
2023-03-02T16:06:40.430Z,1.90
2023-03-02T16:09:07.143Z,2.13
2023-03-02T16:11:33.843Z,1.83
2023-03-02T16:14:00.309Z,1.98
2023-03-02T16:16:26.992Z,2.00
2023-03-02T16:18:54.628Z,1.90
2023-03-02T16:21:21.512Z,1.67
2023-03-02T16:23:48.062Z,1.85
2023-03-02T16:26:16.121Z,1.92
2023-03-02T16:28:42.935Z,2.10
2023-03-02T16:31:12.044Z,2.10
2023-03-02T16:33:39.119Z,2.13
2023-03-02T16:36:06.223Z,1.98
2023-03-02T16:40:59.205Z,2.10
2023-03-02T16:43:25.986Z,2.28
2023-03-02T16:45:52.384Z,2.00
2023-03-02T16:48:18.966Z,2.30
2023-03-02T16:50:45.482Z,2.17
2023-03-02T16:53:13.697Z,2.10
2023-03-02T16:55:40.095Z,1.92
2023-03-02T16:58:06.922Z,2.50
2023-03-02T17:00:33.349Z,2.10
2023-03-02T17:03:00.703Z,2.05
2023-03-02T17:05:27.239Z,2.60
2023-03-02T17:07:53.682Z,2.55
2023-03-02T17:10:21.496Z,2.00
2023-03-02T17:12:47.965Z,2.45
2023-03-02T17:15:14.936Z,2.30
2023-03-02T17:17:41.559Z,2.30
2023-03-02T17:20:08.893Z,2.25
2023-03-02T17:22:35.391Z,2.10
2023-03-02T17:25:04.365Z,2.20
2023-03-02T17:27:31.201Z,2.35
2023-03-02T17:29:57.619Z,2.08
2023-03-02T17:32:24.281Z,2.45
2023-03-02T17:34:51.120Z,2.03
2023-03-02T17:37:17.952Z,2.20
2023-03-02T17:39:44.396Z,2.10
2023-03-02T17:42:10.801Z,2.13
2023-03-02T17:44:40.651Z,2.20
2023-03-02T17:47:08.303Z,2.00
2023-03-02T17:49:38.079Z,1.85
2023-03-02T17:52:05.481Z,2.10
2023-03-02T17:54:32.558Z,2.20
2023-03-02T17:56:58.922Z,2.00
2023-03-02T17:59:25.303Z,1.95
2023-03-02T18:01:51.784Z,2.10
2023-03-02T18:04:18.232Z,2.10
2023-03-02T18:06:44.626Z,2.20
2023-03-02T18:09:11.142Z,2.10
2023-03-02T18:11:37.977Z,2.42
2023-03-02T18:14:04.445Z,2.17
2023-03-02T18:16:30.981Z,2.50
2023-03-02T18:18:57.568Z,2.10
2023-03-02T18:21:24.200Z,2.30
2023-03-02T18:23:50.659Z,2.20
2023-03-02T18:26:17.119Z,2.42
2023-03-02T18:28:43.490Z,2.40
2023-03-02T18:31:11.207Z,2.30
2023-03-02T18:33:37.800Z,2.55
2023-03-02T18:36:05.501Z,2.30
2023-03-02T18:38:33.143Z,2.40
2023-03-02T18:41:00.750Z,2.70
2023-03-02T18:43:27.907Z,2.20
2023-03-02T18:45:54.308Z,2.50
2023-03-02T18:48:20.990Z,2.47
2023-03-02T18:50:47.493Z,2.38
2023-03-02T18:53:14.094Z,2.80
2023-03-02T18:55:40.980Z,2.50
2023-03-02T18:58:07.820Z,2.55
2023-03-02T19:00:34.958Z,2.50
2023-03-02T19:03:01.448Z,2.40
2023-03-02T19:05:29.616Z,2.30
2023-03-02T19:07:59.028Z,2.53
2023-03-02T19:10:25.561Z,2.50
2023-03-02T19:12:52.033Z,2.67
2023-03-02T19:15:18.706Z,3.00
2023-03-02T19:17:45.324Z,2.40
2023-03-02T19:20:17.765Z,2.70
2023-03-02T19:22:44.236Z,2.80
2023-03-02T19:25:11.129Z,2.78
2023-03-02T19:27:37.763Z,2.58
2023-03-02T19:30:05.298Z,2.90
2023-03-02T19:32:31.765Z,2.80
2023-03-02T19:34:59.975Z,3.00
2023-03-02T19:37:26.368Z,3.28
2023-03-02T19:39:52.985Z,3.10
2023-03-02T19:42:19.417Z,2.78
2023-03-02T19:44:45.866Z,3.05
2023-03-02T19:47:12.292Z,3.50
2023-03-02T19:49:38.719Z,3.45
2023-03-02T19:52:05.098Z,3.00
2023-03-02T19:54:31.574Z,3.60
2023-03-02T19:56:57.984Z,3.67
2023-03-02T19:59:24.505Z,3.35
2023-03-02T20:01:55.077Z,3.35
2023-03-02T20:04:21.614Z,3.38
2023-03-02T20:06:48.134Z,3.92
2023-03-02T20:09:19.549Z,3.30
2023-03-02T20:11:46.768Z,3.50
2023-03-02T20:14:21.412Z,3.20
2023-03-02T20:16:54.368Z,3.17
2023-03-02T20:19:22.248Z,3.70
2023-03-02T20:21:48.980Z,2.95
2023-03-02T20:24:16.885Z,3.30
2023-03-02T20:26:43.285Z,3.35
2023-03-02T20:29:10.361Z,2.95
2023-03-02T20:31:37.391Z,3.10
2023-03-02T20:34:05.375Z,3.08
2023-03-02T20:36:32.849Z,3.53
2023-03-02T20:39:01.287Z,3.22
2023-03-02T20:41:28.097Z,3.00
2023-03-02T20:43:54.728Z,3.20
2023-03-02T20:46:23.430Z,3.40
2023-03-02T20:48:49.931Z,3.30
2023-03-02T20:51:16.642Z,2.90
2023-03-02T20:53:45.544Z,3.20
2023-03-02T20:56:12.842Z,3.10
2023-03-02T21:01:07.866Z,3.17
2023-03-02T21:03:34.287Z,3.30
2023-03-02T21:06:01.084Z,3.35
2023-03-02T21:08:27.570Z,3.25
2023-03-02T21:10:54.071Z,3.70
2023-03-02T21:13:22.382Z,3.45
2023-03-02T21:15:49.169Z,3.55
2023-03-02T21:18:16.039Z,3.47
2023-03-02T21:20:42.829Z,3.60
2023-03-02T21:23:10.974Z,3.38
2023-03-02T21:25:37.554Z,3.40
2023-03-02T21:28:03.916Z,3.15
2023-03-02T21:30:35.583Z,3.53
2023-03-02T21:33:02.261Z,3.70
2023-03-02T21:35:29.549Z,3.40
2023-03-02T21:40:25.443Z,3.35
2023-03-02T21:42:52.024Z,3.40
2023-03-02T21:45:18.856Z,3.28
2023-03-02T21:47:45.532Z,3.45
2023-03-02T21:50:13.885Z,3.60
2023-03-02T21:52:40.362Z,3.55
2023-03-02T21:55:07.264Z,3.80
2023-03-02T21:57:33.657Z,3.55
2023-03-02T22:00:00.616Z,3.60
2023-03-02T22:02:27.099Z,3.55
2023-03-02T22:04:53.442Z,3.60
2023-03-02T22:07:19.851Z,3.28
2023-03-02T22:09:46.273Z,3.65
2023-03-02T22:12:13.446Z,3.55
2023-03-02T22:14:39.888Z,3.33
2023-03-02T22:17:19.770Z,3.45
2023-03-02T22:19:46.845Z,3.42
2023-03-02T22:22:18.222Z,3.40
2023-03-02T22:24:48.899Z,3.00
2023-03-02T22:27:26.132Z,3.28
2023-03-02T22:29:54.631Z,3.42
2023-03-02T22:32:23.159Z,3.42
2023-03-02T22:35:00.258Z,3.30
2023-03-02T22:37:27.725Z,2.90
2023-03-02T22:39:55.128Z,2.85
2023-03-02T22:42:26.935Z,3.15
2023-03-02T22:45:12.749Z,3.03
2023-03-02T22:47:39.157Z,4.15
2023-03-02T22:50:31.997Z,3.33
2023-03-02T22:53:00.556Z,4.00
2023-03-02T22:55:26.919Z,4.45
2023-03-02T22:57:53.374Z,5.20
2023-03-02T23:00:37.429Z,4.93
2023-03-02T23:03:14.496Z,4.82
2023-03-02T23:05:42.480Z,5.10
2023-03-02T23:08:20.628Z,4.72
2023-03-02T23:10:47.240Z,5.03
2023-03-02T23:13:15.082Z,5.00
2023-03-02T23:15:41.596Z,5.00
2023-03-02T23:18:16.121Z,4.85
2023-03-02T23:20:42.504Z,4.88
2023-03-02T23:23:08.918Z,5.25
2023-03-02T23:25:35.380Z,4.68
2023-03-02T23:28:01.815Z,5.30
2023-03-02T23:30:28.331Z,5.38
2023-03-02T23:32:54.693Z,5.13
2023-03-02T23:35:21.103Z,4.93
2023-03-02T23:37:47.508Z,5.38
2023-03-02T23:40:14.018Z,5.65
2023-03-02T23:42:40.504Z,5.10
2023-03-02T23:45:07.689Z,4.85
2023-03-02T23:47:34.236Z,4.68
2023-03-02T23:50:00.664Z,5.07
2023-03-02T23:52:27.136Z,5.10
2023-03-02T23:54:53.670Z,4.80
2023-03-02T23:57:20.165Z,4.22
2023-03-02T23:59:46.528Z,5.07
